Decoded Metar for KFFA (KILL DEVIL HILLS in NC, USA) (IATA:FFA) | Meteo·Mobile Aviation Weather
aviador You're here:

KFFA Decoded Metar

KILL DEVIL HILLS in NC, USA
Report Time2019-07-24 04:40:00
UTC Time2019-07-24 05:04:35
Flight Rules vfr VFR
WindCalm
Visibility9999 m
Phenomena:N/A
Clouds:Scattered 026 Hf
Scattered 036 Hf
CeilingNone
Temp20°C (ISA +5)
Dew Point20°C (100% RH)
QNH1010 hPa
Density Alt1,010 ft
Elevation13 ft
Report Wrong Elevation
Raw Report
KFFA 240440Z AUTO 00000KT 10SM SCT026 SCT036 20/20 A2984 RMK AO2
T02010201=

Extra information for KFFA:More info

Metar Taf Metar & Taf Last 4 Metars F.Rules Stats Wind Profile Meteogram Temp Stats Airport Information Weather charts Add Link Nearby VenuesMetar ALERT Operation Metar Decoded Social comments

AIRNAV info for KFFA